sensor_id;sensor_type;location;lat;lon;timestamp;temperature;humidity
79030;DHT22;68511;51.146;7.012;2023-03-15T10:36:18;21.60;39.20
79030;DHT22;68511;51.146;7.012;2023-03-15T10:38:45;24.00;32.10
79030;DHT22;68511;51.146;7.012;2023-03-15T10:41:11;23.70;33.70
79030;DHT22;68511;51.146;7.012;2023-03-15T10:43:38;23.70;33.10
79030;DHT22;68511;51.146;7.012;2023-03-15T10:46:21;23.60;33.60
79030;DHT22;68511;51.146;7.012;2023-03-15T10:51:32;23.40;33.00
79030;DHT22;68511;51.146;7.012;2023-03-15T11:18:16;23.40;31.80
79030;DHT22;68511;51.146;7.012;2023-03-15T11:19:18;23.20;33.40
79030;DHT22;68511;51.146;7.012;2023-03-15T11:20:28;23.20;33.60
79030;DHT22;68511;51.146;7.012;2023-03-15T11:23:05;22.50;32.00
79030;DHT22;68511;51.146;7.012;2023-03-15T11:24:17;22.10;32.60
79030;DHT22;68511;51.146;7.012;2023-03-15T11:25:18;21.80;32.90
79030;DHT22;68511;51.146;7.012;2023-03-15T11:26:21;21.60;33.40
79030;DHT22;68511;51.146;7.012;2023-03-15T11:27:22;21.50;33.80
79030;DHT22;68511;51.146;7.012;2023-03-15T11:28:24;21.40;34.00
79030;DHT22;68511;51.146;7.012;2023-03-15T11:30:29;21.60;35.20
79030;DHT22;68511;51.146;7.012;2023-03-15T11:31:30;21.80;35.10
79030;DHT22;68511;51.146;7.012;2023-03-15T11:32:31;21.90;35.10
79030;DHT22;68511;51.146;7.012;2023-03-15T11:35:42;22.30;34.60
79030;DHT22;68511;51.146;7.012;2023-03-15T11:36:47;22.40;34.50
79030;DHT22;68511;51.146;7.012;2023-03-15T11:38:50;22.60;34.20
79030;DHT22;68511;51.146;7.012;2023-03-15T11:40:09;22.70;34.10
79030;DHT22;68511;51.146;7.012;2023-03-15T11:42:32;22.80;33.90
79030;DHT22;68511;51.146;7.012;2023-03-15T11:43:58;22.80;33.70
79030;DHT22;68511;51.146;7.012;2023-03-15T11:45:02;22.90;33.70
79030;DHT22;68511;51.146;7.012;2023-03-15T11:46:04;23.00;33.60
79030;DHT22;68511;51.146;7.012;2023-03-15T11:47:12;22.90;33.50
79030;DHT22;68511;51.146;7.012;2023-03-15T11:48:15;23.00;33.50
79030;DHT22;68511;51.146;7.012;2023-03-15T11:50:20;23.00;33.30
79030;DHT22;68511;51.146;7.012;2023-03-15T11:51:21;23.00;33.30
79030;DHT22;68511;51.146;7.012;2023-03-15T11:52:25;23.10;33.30
79030;DHT22;68511;51.146;7.012;2023-03-15T11:53:28;23.10;33.20
79030;DHT22;68511;51.146;7.012;2023-03-15T11:54:29;23.10;33.20
79030;DHT22;68511;51.146;7.012;2023-03-15T11:55:31;23.10;33.10
79030;DHT22;68511;51.146;7.012;2023-03-15T11:56:49;23.10;33.00
79030;DHT22;68511;51.146;7.012;2023-03-15T11:57:50;23.10;33.00
79030;DHT22;68511;51.146;7.012;2023-03-15T12:01:23;23.10;33.00
79030;DHT22;68511;51.146;7.012;2023-03-15T12:03:42;23.20;32.90
79030;DHT22;68511;51.146;7.012;2023-03-15T12:04:49;23.10;32.80
79030;DHT22;68511;51.146;7.012;2023-03-15T12:06:01;23.10;32.80
79030;DHT22;68511;51.146;7.012;2023-03-15T12:08:22;23.10;32.70
79030;DHT22;68511;51.146;7.012;2023-03-15T12:09:37;23.10;32.70
79030;DHT22;68511;51.146;7.012;2023-03-15T12:10:45;23.20;32.80
79030;DHT22;68511;51.146;7.012;2023-03-15T12:11:46;23.20;32.70
79030;DHT22;68511;51.146;7.012;2023-03-15T12:12:47;23.20;32.70
79030;DHT22;68511;51.146;7.012;2023-03-15T12:15:14;23.10;32.70
79030;DHT22;68511;51.146;7.012;2023-03-15T12:16:30;23.10;32.60
79030;DHT22;68511;51.146;7.012;2023-03-15T12:18:38;23.00;32.80
79030;DHT22;68511;51.146;7.012;2023-03-15T12:19:41;23.00;32.80
79030;DHT22;68511;51.146;7.012;2023-03-15T12:20:42;23.00;32.70
79030;DHT22;68511;51.146;7.012;2023-03-15T12:21:56;23.00;32.60
79030;DHT22;68511;51.146;7.012;2023-03-15T12:24:19;23.00;32.80
79030;DHT22;68511;51.146;7.012;2023-03-15T12:25:36;23.10;32.70
79030;DHT22;68511;51.146;7.012;2023-03-15T12:26:39;23.10;32.70
79030;DHT22;68511;51.146;7.012;2023-03-15T12:27:46;23.20;32.70
79030;DHT22;68511;51.146;7.012;2023-03-15T12:30:00;23.30;32.60
79030;DHT22;68511;51.146;7.012;2023-03-15T12:31:02;23.40;32.60
79030;DHT22;68511;51.146;7.012;2023-03-15T12:32:05;23.40;32.50
79030;DHT22;68511;51.146;7.012;2023-03-15T12:33:13;23.40;32.40
79030;DHT22;68511;51.146;7.012;2023-03-15T12:34:15;23.40;32.40
79030;DHT22;68511;51.146;7.012;2023-03-15T12:35:22;23.50;32.40
79030;DHT22;68511;51.146;7.012;2023-03-15T12:37:31;23.50;32.40
79030;DHT22;68511;51.146;7.012;2023-03-15T12:38:38;23.50;32.40
79030;DHT22;68511;51.146;7.012;2023-03-15T12:39:42;23.50;32.30
79030;DHT22;68511;51.146;7.012;2023-03-15T12:41:50;23.30;32.20
79030;DHT22;68511;51.146;7.012;2023-03-15T12:47:42;22.80;33.00
79030;DHT22;68511;51.146;7.012;2023-03-15T12:49:03;22.90;33.10
79030;DHT22;68511;51.146;7.012;2023-03-15T12:50:34;22.90;33.00
79030;DHT22;68511;51.146;7.012;2023-03-15T12:51:40;23.00;33.00
79030;DHT22;68511;51.146;7.012;2023-03-15T12:52:41;23.00;32.90
79030;DHT22;68511;51.146;7.012;2023-03-15T12:53:43;23.00;32.80
79030;DHT22;68511;51.146;7.012;2023-03-15T12:54:50;23.10;32.90
79030;DHT22;68511;51.146;7.012;2023-03-15T12:55:53;23.10;32.80
79030;DHT22;68511;51.146;7.012;2023-03-15T12:56:55;23.10;32.80
79030;DHT22;68511;51.146;7.012;2023-03-15T12:57:56;23.10;32.80
79030;DHT22;68511;51.146;7.012;2023-03-15T12:59:03;23.10;32.80
79030;DHT22;68511;51.146;7.012;2023-03-15T13:01:11;23.10;32.70
79030;DHT22;68511;51.146;7.012;2023-03-15T13:02:21;23.10;33.20
79030;DHT22;68511;51.146;7.012;2023-03-15T13:03:24;23.10;32.70
79030;DHT22;68511;51.146;7.012;2023-03-15T13:04:26;23.10;32.60
79030;DHT22;68511;51.146;7.012;2023-03-15T13:05:29;23.10;32.60
79030;DHT22;68511;51.146;7.012;2023-03-15T13:12:00;23.10;32.60
79030;DHT22;68511;51.146;7.012;2023-03-15T13:14:26;23.10;32.60
79030;DHT22;68511;51.146;7.012;2023-03-15T13:17:03;23.10;32.70
79030;DHT22;68511;51.146;7.012;2023-03-15T13:18:14;23.10;32.60
79030;DHT22;68511;51.146;7.012;2023-03-15T13:19:21;23.10;32.60
79030;DHT22;68511;51.146;7.012;2023-03-15T13:21:35;23.10;32.50
79030;DHT22;68511;51.146;7.012;2023-03-15T13:22:40;23.10;32.60
79030;DHT22;68511;51.146;7.012;2023-03-15T13:23:46;23.10;32.60
79030;DHT22;68511;51.146;7.012;2023-03-15T13:24:56;23.10;32.60
79030;DHT22;68511;51.146;7.012;2023-03-15T13:28:15;23.00;32.50
79030;DHT22;68511;51.146;7.012;2023-03-15T13:29:20;23.00;32.50
79030;DHT22;68511;51.146;7.012;2023-03-15T13:31:26;23.00;32.60
79030;DHT22;68511;51.146;7.012;2023-03-15T13:32:27;23.00;32.60
79030;DHT22;68511;51.146;7.012;2023-03-15T13:33:28;23.00;32.60
79030;DHT22;68511;51.146;7.012;2023-03-15T13:34:30;23.00;32.70
79030;DHT22;68511;51.146;7.012;2023-03-15T13:35:31;22.90;32.60
79030;DHT22;68511;51.146;7.012;2023-03-15T13:36:39;23.00;32.70
79030;DHT22;68511;51.146;7.012;2023-03-15T13:37:39;23.00;32.60
79030;DHT22;68511;51.146;7.012;2023-03-15T13:38:45;23.00;32.60
79030;DHT22;68511;51.146;7.012;2023-03-15T16:44:26;20.90;37.00
79030;DHT22;68511;51.146;7.012;2023-03-15T16:45:26;20.90;37.60
79030;DHT22;68511;51.146;7.012;2023-03-15T16:46:26;20.80;37.70
79030;DHT22;68511;51.146;7.012;2023-03-15T16:47:27;20.80;37.80
79030;DHT22;68511;51.146;7.012;2023-03-15T16:48:27;20.90;38.00
79030;DHT22;68511;51.146;7.012;2023-03-15T16:49:29;20.90;38.10
79030;DHT22;68511;51.146;7.012;2023-03-15T16:50:30;20.80;38.20
79030;DHT22;68511;51.146;7.012;2023-03-15T16:51:31;20.80;38.20
79030;DHT22;68511;51.146;7.012;2023-03-15T16:52:32;20.80;38.40
79030;DHT22;68511;51.146;7.012;2023-03-15T16:53:32;20.80;38.20
79030;DHT22;68511;51.146;7.012;2023-03-15T16:54:34;20.90;38.30
79030;DHT22;68511;51.146;7.012;2023-03-15T16:55:35;21.00;38.40
79030;DHT22;68511;51.146;7.012;2023-03-15T16:56:36;20.90;38.20
79030;DHT22;68511;51.146;7.012;2023-03-15T16:57:36;20.90;38.40
79030;DHT22;68511;51.146;7.012;2023-03-15T16:58:37;20.90;38.60
79030;DHT22;68511;51.146;7.012;2023-03-15T16:59:38;21.00;38.70
79030;DHT22;68511;51.146;7.012;2023-03-15T17:00:38;21.00;38.70
79030;DHT22;68511;51.146;7.012;2023-03-15T17:01:43;21.00;38.70
79030;DHT22;68511;51.146;7.012;2023-03-15T17:02:45;21.00;38.80
79030;DHT22;68511;51.146;7.012;2023-03-15T17:03:46;21.00;38.80
79030;DHT22;68511;51.146;7.012;2023-03-15T17:04:46;21.00;38.70
79030;DHT22;68511;51.146;7.012;2023-03-15T17:05:47;21.00;38.70
79030;DHT22;68511;51.146;7.012;2023-03-15T17:06:48;21.00;38.80
79030;DHT22;68511;51.146;7.012;2023-03-15T17:07:49;21.00;39.00
79030;DHT22;68511;51.146;7.012;2023-03-15T17:08:56;21.10;39.10
79030;DHT22;68511;51.146;7.012;2023-03-15T17:09:59;21.10;39.40
79030;DHT22;68511;51.146;7.012;2023-03-15T17:11:02;21.20;39.50
79030;DHT22;68511;51.146;7.012;2023-03-15T17:12:02;21.20;39.70
79030;DHT22;68511;51.146;7.012;2023-03-15T17:13:03;21.20;39.60
79030;DHT22;68511;51.146;7.012;2023-03-15T17:14:03;21.20;40.20
79030;DHT22;68511;51.146;7.012;2023-03-15T17:15:04;21.20;39.70
79030;DHT22;68511;51.146;7.012;2023-03-15T17:16:08;21.20;39.70
79030;DHT22;68511;51.146;7.012;2023-03-15T17:17:09;21.10;39.90
79030;DHT22;68511;51.146;7.012;2023-03-15T17:18:17;21.10;40.20
79030;DHT22;68511;51.146;7.012;2023-03-15T17:19:17;21.20;40.20
79030;DHT22;68511;51.146;7.012;2023-03-15T17:20:18;21.20;40.30
79030;DHT22;68511;51.146;7.012;2023-03-15T17:21:26;21.20;40.60
79030;DHT22;68511;51.146;7.012;2023-03-15T17:22:27;21.20;40.90
79030;DHT22;68511;51.146;7.012;2023-03-15T17:23:27;21.20;41.00
79030;DHT22;68511;51.146;7.012;2023-03-15T17:24:28;21.20;41.10
79030;DHT22;68511;51.146;7.012;2023-03-15T17:25:28;21.20;41.20
79030;DHT22;68511;51.146;7.012;2023-03-15T17:26:29;21.20;41.20
79030;DHT22;68511;51.146;7.012;2023-03-15T17:27:35;21.20;41.20
79030;DHT22;68511;51.146;7.012;2023-03-15T17:28:36;21.20;41.50
79030;DHT22;68511;51.146;7.012;2023-03-15T17:29:36;21.20;41.50
79030;DHT22;68511;51.146;7.012;2023-03-15T17:30:37;21.20;41.50
79030;DHT22;68511;51.146;7.012;2023-03-15T17:31:37;21.20;41.70
79030;DHT22;68511;51.146;7.012;2023-03-15T17:32:38;21.20;41.70
79030;DHT22;68511;51.146;7.012;2023-03-15T17:33:38;21.30;41.70
79030;DHT22;68511;51.146;7.012;2023-03-15T17:34:39;21.20;41.60
79030;DHT22;68511;51.146;7.012;2023-03-15T17:35:41;21.20;41.60
79030;DHT22;68511;51.146;7.012;2023-03-15T17:36:44;21.30;41.40
79030;DHT22;68511;51.146;7.012;2023-03-15T17:37:45;21.30;42.10
79030;DHT22;68511;51.146;7.012;2023-03-15T17:38:46;21.30;41.50
79030;DHT22;68511;51.146;7.012;2023-03-15T17:39:47;21.40;41.60
79030;DHT22;68511;51.146;7.012;2023-03-15T17:40:48;21.30;41.50
79030;DHT22;68511;51.146;7.012;2023-03-15T17:41:48;21.30;41.60
79030;DHT22;68511;51.146;7.012;2023-03-15T17:42:49;21.30;41.60
79030;DHT22;68511;51.146;7.012;2023-03-15T17:43:50;21.40;41.80
79030;DHT22;68511;51.146;7.012;2023-03-15T17:44:51;21.30;41.70
79030;DHT22;68511;51.146;7.012;2023-03-15T17:45:51;21.40;41.80
79030;DHT22;68511;51.146;7.012;2023-03-15T17:46:51;21.30;41.80
79030;DHT22;68511;51.146;7.012;2023-03-15T17:47:52;21.30;41.90
79030;DHT22;68511;51.146;7.012;2023-03-15T17:48:53;21.40;41.90
79030;DHT22;68511;51.146;7.012;2023-03-15T17:49:53;21.30;41.90
79030;DHT22;68511;51.146;7.012;2023-03-15T17:50:54;21.40;42.00
79030;DHT22;68511;51.146;7.012;2023-03-15T17:51:54;21.40;42.10
79030;DHT22;68511;51.146;7.012;2023-03-15T17:52:57;21.30;42.10
79030;DHT22;68511;51.146;7.012;2023-03-15T17:53:58;21.30;42.10
79030;DHT22;68511;51.146;7.012;2023-03-15T17:55:01;21.40;42.10
79030;DHT22;68511;51.146;7.012;2023-03-15T17:56:01;21.40;41.80
79030;DHT22;68511;51.146;7.012;2023-03-15T17:57:02;21.40;41.90
79030;DHT22;68511;51.146;7.012;2023-03-15T17:58:08;21.40;41.80
79030;DHT22;68511;51.146;7.012;2023-03-15T17:59:10;21.40;41.60
79030;DHT22;68511;51.146;7.012;2023-03-15T18:00:11;21.40;41.80
79030;DHT22;68511;51.146;7.012;2023-03-15T18:01:15;21.50;41.90
79030;DHT22;68511;51.146;7.012;2023-03-15T18:02:16;21.50;41.90
79030;DHT22;68511;51.146;7.012;2023-03-15T18:03:17;21.40;41.90
79030;DHT22;68511;51.146;7.012;2023-03-15T18:04:19;21.40;42.70
79030;DHT22;68511;51.146;7.012;2023-03-15T18:05:24;21.50;42.20
79030;DHT22;68511;51.146;7.012;2023-03-15T18:06:25;21.40;42.00
79030;DHT22;68511;51.146;7.012;2023-03-15T18:07:25;21.40;42.10
79030;DHT22;68511;51.146;7.012;2023-03-15T18:08:28;21.50;42.10
79030;DHT22;68511;51.146;7.012;2023-03-15T18:09:29;21.50;42.10
79030;DHT22;68511;51.146;7.012;2023-03-15T18:10:33;21.50;42.30
79030;DHT22;68511;51.146;7.012;2023-03-15T18:11:34;21.50;42.30
79030;DHT22;68511;51.146;7.012;2023-03-15T18:12:35;21.50;42.30
79030;DHT22;68511;51.146;7.012;2023-03-15T18:13:35;21.50;42.40
79030;DHT22;68511;51.146;7.012;2023-03-15T18:14:36;21.50;42.50
79030;DHT22;68511;51.146;7.012;2023-03-15T18:15:37;21.50;42.50
79030;DHT22;68511;51.146;7.012;2023-03-15T18:16:38;21.40;42.40
79030;DHT22;68511;51.146;7.012;2023-03-15T18:17:38;21.40;42.40
79030;DHT22;68511;51.146;7.012;2023-03-15T18:18:42;21.40;42.50
79030;DHT22;68511;51.146;7.012;2023-03-15T18:19:42;21.40;42.50
79030;DHT22;68511;51.146;7.012;2023-03-15T18:20:43;21.40;42.50
79030;DHT22;68511;51.146;7.012;2023-03-15T18:21:44;21.40;42.50
79030;DHT22;68511;51.146;7.012;2023-03-15T18:22:45;21.40;42.40
79030;DHT22;68511;51.146;7.012;2023-03-15T18:23:45;21.40;42.40
79030;DHT22;68511;51.146;7.012;2023-03-15T18:24:46;21.40;42.50
79030;DHT22;68511;51.146;7.012;2023-03-15T18:25:46;21.50;42.50
79030;DHT22;68511;51.146;7.012;2023-03-15T18:26:47;21.50;42.50
79030;DHT22;68511;51.146;7.012;2023-03-15T18:27:48;21.40;42.50
79030;DHT22;68511;51.146;7.012;2023-03-15T18:28:49;21.40;42.50
79030;DHT22;68511;51.146;7.012;2023-03-15T18:29:50;21.50;42.60
79030;DHT22;68511;51.146;7.012;2023-03-15T18:30:51;21.50;42.60
79030;DHT22;68511;51.146;7.012;2023-03-15T18:31:52;21.40;42.50
79030;DHT22;68511;51.146;7.012;2023-03-15T18:32:52;21.50;42.70
79030;DHT22;68511;51.146;7.012;2023-03-15T18:33:53;21.50;42.70
79030;DHT22;68511;51.146;7.012;2023-03-15T18:34:53;21.40;42.60
79030;DHT22;68511;51.146;7.012;2023-03-15T18:35:54;21.50;42.70
79030;DHT22;68511;51.146;7.012;2023-03-15T18:36:55;21.50;42.70
79030;DHT22;68511;51.146;7.012;2023-03-15T18:37:55;21.50;42.70
79030;DHT22;68511;51.146;7.012;2023-03-15T18:38:56;21.50;42.70
79030;DHT22;68511;51.146;7.012;2023-03-15T18:39:57;21.50;42.70
79030;DHT22;68511;51.146;7.012;2023-03-15T18:40:57;21.40;42.70
79030;DHT22;68511;51.146;7.012;2023-03-15T18:41:58;21.50;42.80
79030;DHT22;68511;51.146;7.012;2023-03-15T18:43:00;21.50;42.80
79030;DHT22;68511;51.146;7.012;2023-03-15T18:44:01;21.50;42.70
79030;DHT22;68511;51.146;7.012;2023-03-15T18:45:01;21.50;42.70
79030;DHT22;68511;51.146;7.012;2023-03-15T18:46:02;21.50;42.70
79030;DHT22;68511;51.146;7.012;2023-03-15T18:47:02;21.60;42.70
79030;DHT22;68511;51.146;7.012;2023-03-15T18:48:04;21.60;42.60
79030;DHT22;68511;51.146;7.012;2023-03-15T18:49:04;21.50;42.50
79030;DHT22;68511;51.146;7.012;2023-03-15T18:50:05;21.60;42.60
79030;DHT22;68511;51.146;7.012;2023-03-15T18:51:08;21.60;42.60
79030;DHT22;68511;51.146;7.012;2023-03-15T18:52:09;21.60;42.70
79030;DHT22;68511;51.146;7.012;2023-03-15T18:53:12;21.60;42.70
79030;DHT22;68511;51.146;7.012;2023-03-15T18:54:13;21.60;42.70
79030;DHT22;68511;51.146;7.012;2023-03-15T18:55:14;21.60;42.70
79030;DHT22;68511;51.146;7.012;2023-03-15T18:56:16;21.60;42.70
79030;DHT22;68511;51.146;7.012;2023-03-15T18:57:18;21.60;42.70
79030;DHT22;68511;51.146;7.012;2023-03-15T18:58:19;21.60;42.70
79030;DHT22;68511;51.146;7.012;2023-03-15T18:59:21;21.60;42.70
79030;DHT22;68511;51.146;7.012;2023-03-15T19:00:26;21.60;42.70
79030;DHT22;68511;51.146;7.012;2023-03-15T19:01:27;21.60;42.70
79030;DHT22;68511;51.146;7.012;2023-03-15T19:02:28;21.60;42.70
79030;DHT22;68511;51.146;7.012;2023-03-15T19:03:28;21.50;42.70
79030;DHT22;68511;51.146;7.012;2023-03-15T19:04:29;21.60;42.80
79030;DHT22;68511;51.146;7.012;2023-03-15T19:05:31;21.60;42.80
79030;DHT22;68511;51.146;7.012;2023-03-15T19:06:31;21.50;42.70
79030;DHT22;68511;51.146;7.012;2023-03-15T19:07:32;21.50;42.70
79030;DHT22;68511;51.146;7.012;2023-03-15T19:08:33;21.60;42.80
79030;DHT22;68511;51.146;7.012;2023-03-15T19:09:33;21.50;42.70
79030;DHT22;68511;51.146;7.012;2023-03-15T19:10:34;21.60;42.90
79030;DHT22;68511;51.146;7.012;2023-03-15T19:11:34;21.50;42.80
79030;DHT22;68511;51.146;7.012;2023-03-15T19:12:41;21.50;42.80
79030;DHT22;68511;51.146;7.012;2023-03-15T19:13:43;21.50;42.80
79030;DHT22;68511;51.146;7.012;2023-03-15T19:14:50;21.60;42.90
79030;DHT22;68511;51.146;7.012;2023-03-15T19:15:50;21.60;42.90
79030;DHT22;68511;51.146;7.012;2023-03-15T19:16:51;21.60;42.90
79030;DHT22;68511;51.146;7.012;2023-03-15T19:17:53;21.60;42.90
79030;DHT22;68511;51.146;7.012;2023-03-15T19:18:53;21.60;42.80
79030;DHT22;68511;51.146;7.012;2023-03-15T19:19:54;21.60;42.90
79030;DHT22;68511;51.146;7.012;2023-03-15T19:20:54;21.60;42.90
79030;DHT22;68511;51.146;7.012;2023-03-15T19:21:55;21.70;42.90
79030;DHT22;68511;51.146;7.012;2023-03-15T19:22:56;21.60;42.80
79030;DHT22;68511;51.146;7.012;2023-03-15T19:23:57;21.60;42.80
79030;DHT22;68511;51.146;7.012;2023-03-15T19:24:57;21.60;42.80
79030;DHT22;68511;51.146;7.012;2023-03-15T19:25:58;21.60;42.80
79030;DHT22;68511;51.146;7.012;2023-03-15T19:26:58;21.60;42.90
79030;DHT22;68511;51.146;7.012;2023-03-15T19:27:59;21.60;42.90
79030;DHT22;68511;51.146;7.012;2023-03-15T19:28:59;21.70;43.00
79030;DHT22;68511;51.146;7.012;2023-03-15T19:30:02;21.60;42.90
79030;DHT22;68511;51.146;7.012;2023-03-15T19:31:03;21.60;43.00
79030;DHT22;68511;51.146;7.012;2023-03-15T19:32:03;21.60;42.90
79030;DHT22;68511;51.146;7.012;2023-03-15T19:33:04;21.60;42.90
79030;DHT22;68511;51.146;7.012;2023-03-15T19:34:04;21.60;43.00
79030;DHT22;68511;51.146;7.012;2023-03-15T19:35:05;21.60;43.00
79030;DHT22;68511;51.146;7.012;2023-03-15T19:36:06;21.60;43.00
79030;DHT22;68511;51.146;7.012;2023-03-15T19:37:06;21.60;43.00
79030;DHT22;68511;51.146;7.012;2023-03-15T19:38:07;21.60;43.00
79030;DHT22;68511;51.146;7.012;2023-03-15T19:39:08;21.60;43.00
79030;DHT22;68511;51.146;7.012;2023-03-15T19:40:10;21.70;43.10
79030;DHT22;68511;51.146;7.012;2023-03-15T19:41:11;21.60;43.10
79030;DHT22;68511;51.146;7.012;2023-03-15T19:42:12;21.70;43.10
79030;DHT22;68511;51.146;7.012;2023-03-15T19:43:12;21.60;43.10
79030;DHT22;68511;51.146;7.012;2023-03-15T19:44:14;21.60;43.10
79030;DHT22;68511;51.146;7.012;2023-03-15T19:45:14;21.60;43.10
79030;DHT22;68511;51.146;7.012;2023-03-15T19:46:15;21.60;43.10
79030;DHT22;68511;51.146;7.012;2023-03-15T19:47:17;21.60;43.10
79030;DHT22;68511;51.146;7.012;2023-03-15T19:48:18;21.60;43.10
79030;DHT22;68511;51.146;7.012;2023-03-15T19:49:19;21.60;43.10
79030;DHT22;68511;51.146;7.012;2023-03-15T19:50:19;21.70;43.20
79030;DHT22;68511;51.146;7.012;2023-03-15T19:51:20;21.60;43.10
79030;DHT22;68511;51.146;7.012;2023-03-15T19:52:20;21.70;43.20
79030;DHT22;68511;51.146;7.012;2023-03-15T19:53:21;21.60;43.10
79030;DHT22;68511;51.146;7.012;2023-03-15T19:54:22;21.60;43.10
79030;DHT22;68511;51.146;7.012;2023-03-15T19:55:22;21.70;43.20
79030;DHT22;68511;51.146;7.012;2023-03-15T19:56:25;21.60;43.10
79030;DHT22;68511;51.146;7.012;2023-03-15T19:57:26;21.70;43.30
79030;DHT22;68511;51.146;7.012;2023-03-15T19:58:26;21.70;43.20
79030;DHT22;68511;51.146;7.012;2023-03-15T19:59:27;21.70;43.20
79030;DHT22;68511;51.146;7.012;2023-03-15T20:00:27;21.60;43.10
79030;DHT22;68511;51.146;7.012;2023-03-15T20:01:28;21.60;43.10
79030;DHT22;68511;51.146;7.012;2023-03-15T20:02:29;21.70;43.20
79030;DHT22;68511;51.146;7.012;2023-03-15T20:03:30;21.70;43.10
79030;DHT22;68511;51.146;7.012;2023-03-15T20:04:34;21.70;43.10
79030;DHT22;68511;51.146;7.012;2023-03-15T20:05:34;21.70;43.10
79030;DHT22;68511;51.146;7.012;2023-03-15T20:06:36;21.70;43.10
79030;DHT22;68511;51.146;7.012;2023-03-15T20:07:38;21.70;43.10
79030;DHT22;68511;51.146;7.012;2023-03-15T20:08:41;21.70;43.10
79030;DHT22;68511;51.146;7.012;2023-03-15T20:09:42;21.70;43.00
79030;DHT22;68511;51.146;7.012;2023-03-15T20:10:43;21.70;43.10
79030;DHT22;68511;51.146;7.012;2023-03-15T20:11:43;21.70;43.20
79030;DHT22;68511;51.146;7.012;2023-03-15T20:12:44;21.70;42.60
79030;DHT22;68511;51.146;7.012;2023-03-15T20:13:44;21.70;42.70
79030;DHT22;68511;51.146;7.012;2023-03-15T20:14:45;21.70;42.70
79030;DHT22;68511;51.146;7.012;2023-03-15T20:15:45;21.70;42.50
79030;DHT22;68511;51.146;7.012;2023-03-15T20:16:46;21.70;42.70
79030;DHT22;68511;51.146;7.012;2023-03-15T20:17:46;21.70;42.60
79030;DHT22;68511;51.146;7.012;2023-03-15T20:18:47;21.60;42.40
79030;DHT22;68511;51.146;7.012;2023-03-15T20:19:50;21.60;42.50
79030;DHT22;68511;51.146;7.012;2023-03-15T20:20:50;21.60;42.60
79030;DHT22;68511;51.146;7.012;2023-03-15T20:21:51;21.60;42.80
79030;DHT22;68511;51.146;7.012;2023-03-15T20:22:51;21.60;43.00
79030;DHT22;68511;51.146;7.012;2023-03-15T20:23:52;21.60;43.10
79030;DHT22;68511;51.146;7.012;2023-03-15T20:24:53;21.50;43.20
79030;DHT22;68511;51.146;7.012;2023-03-15T20:26:03;21.60;43.70
79030;DHT22;68511;51.146;7.012;2023-03-15T20:27:04;21.50;44.20
79030;DHT22;68511;51.146;7.012;2023-03-15T20:28:05;21.50;44.40
79030;DHT22;68511;51.146;7.012;2023-03-15T20:29:05;21.50;44.40
79030;DHT22;68511;51.146;7.012;2023-03-15T20:30:06;21.50;44.70
79030;DHT22;68511;51.146;7.012;2023-03-15T20:31:08;21.50;44.70
79030;DHT22;68511;51.146;7.012;2023-03-15T20:32:09;21.50;44.90
79030;DHT22;68511;51.146;7.012;2023-03-15T20:33:09;21.40;45.00
79030;DHT22;68511;51.146;7.012;2023-03-15T20:34:09;21.50;45.20
79030;DHT22;68511;51.146;7.012;2023-03-15T20:35:11;21.50;45.00
79030;DHT22;68511;51.146;7.012;2023-03-15T20:36:11;21.50;45.40
79030;DHT22;68511;51.146;7.012;2023-03-15T20:37:12;21.50;45.30
79030;DHT22;68511;51.146;7.012;2023-03-15T20:38:12;21.50;45.40
79030;DHT22;68511;51.146;7.012;2023-03-15T20:39:13;21.50;45.40
79030;DHT22;68511;51.146;7.012;2023-03-15T20:40:15;21.40;45.50
79030;DHT22;68511;51.146;7.012;2023-03-15T20:41:16;21.50;44.70
79030;DHT22;68511;51.146;7.012;2023-03-15T20:42:21;21.50;44.00
79030;DHT22;68511;51.146;7.012;2023-03-15T20:43:22;21.50;44.00
79030;DHT22;68511;51.146;7.012;2023-03-15T20:44:23;21.50;44.60
79030;DHT22;68511;51.146;7.012;2023-03-15T20:45:23;21.50;44.30
79030;DHT22;68511;51.146;7.012;2023-03-15T20:46:24;21.60;44.30
79030;DHT22;68511;51.146;7.012;2023-03-15T20:47:24;21.60;44.30
79030;DHT22;68511;51.146;7.012;2023-03-15T20:48:25;21.60;44.20
79030;DHT22;68511;51.146;7.012;2023-03-15T20:49:26;21.70;44.20
79030;DHT22;68511;51.146;7.012;2023-03-15T20:50:26;21.70;44.10
79030;DHT22;68511;51.146;7.012;2023-03-15T20:51:26;21.80;44.20
79030;DHT22;68511;51.146;7.012;2023-03-15T20:52:27;21.80;44.10
79030;DHT22;68511;51.146;7.012;2023-03-15T20:53:28;21.80;44.20
79030;DHT22;68511;51.146;7.012;2023-03-15T20:54:28;21.80;44.40
79030;DHT22;68511;51.146;7.012;2023-03-15T20:55:29;21.90;44.50
79030;DHT22;68511;51.146;7.012;2023-03-15T20:56:31;21.90;44.40
79030;DHT22;68511;51.146;7.012;2023-03-15T20:57:33;21.80;44.30
79030;DHT22;68511;51.146;7.012;2023-03-15T20:58:35;21.90;44.30
79030;DHT22;68511;51.146;7.012;2023-03-15T20:59:35;21.80;44.50
79030;DHT22;68511;51.146;7.012;2023-03-15T21:00:36;21.80;44.00
79030;DHT22;68511;51.146;7.012;2023-03-15T21:01:40;21.80;44.20
79030;DHT22;68511;51.146;7.012;2023-03-15T21:02:40;21.80;44.40
79030;DHT22;68511;51.146;7.012;2023-03-15T21:03:41;21.80;44.40
79030;DHT22;68511;51.146;7.012;2023-03-15T21:04:42;21.90;44.50
79030;DHT22;68511;51.146;7.012;2023-03-15T21:05:45;21.80;44.50
79030;DHT22;68511;51.146;7.012;2023-03-15T21:06:46;21.80;44.30
79030;DHT22;68511;51.146;7.012;2023-03-15T21:07:46;21.80;44.30
79030;DHT22;68511;51.146;7.012;2023-03-15T21:08:46;21.80;44.30
79030;DHT22;68511;51.146;7.012;2023-03-15T21:09:47;21.80;44.50
79030;DHT22;68511;51.146;7.012;2023-03-15T21:10:48;21.80;44.60
79030;DHT22;68511;51.146;7.012;2023-03-15T21:11:48;21.80;44.40
79030;DHT22;68511;51.146;7.012;2023-03-15T21:12:49;21.80;44.40
79030;DHT22;68511;51.146;7.012;2023-03-15T21:13:49;21.90;44.60
79030;DHT22;68511;51.146;7.012;2023-03-15T21:14:50;21.90;44.50
79030;DHT22;68511;51.146;7.012;2023-03-15T21:15:51;21.90;44.50
79030;DHT22;68511;51.146;7.012;2023-03-15T21:16:52;21.90;44.60
79030;DHT22;68511;51.146;7.012;2023-03-15T21:17:52;21.90;44.50
79030;DHT22;68511;51.146;7.012;2023-03-15T21:18:53;21.90;44.60
79030;DHT22;68511;51.146;7.012;2023-03-15T21:19:54;21.90;44.70
79030;DHT22;68511;51.146;7.012;2023-03-15T21:20:58;21.90;44.60
79030;DHT22;68511;51.146;7.012;2023-03-15T21:21:59;21.90;45.40
79030;DHT22;68511;51.146;7.012;2023-03-15T21:23:00;21.80;44.80
79030;DHT22;68511;51.146;7.012;2023-03-15T21:24:01;21.80;44.70
79030;DHT22;68511;51.146;7.012;2023-03-15T21:25:01;21.80;44.90
79030;DHT22;68511;51.146;7.012;2023-03-15T21:26:03;21.80;44.70
79030;DHT22;68511;51.146;7.012;2023-03-15T21:27:03;21.80;44.80
79030;DHT22;68511;51.146;7.012;2023-03-15T21:28:08;21.80;44.90